EDT,Max TemperatureF,Mean TemperatureF,Min TemperatureF,Max Dew PointF,MeanDew PointF,Min DewpointF,Max Humidity, Mean Humidity, Min Humidity, Max Sea Level PressureIn, Mean Sea Level PressureIn, Min Sea Level PressureIn, Max VisibilityMiles, Mean VisibilityMiles, Min VisibilityMiles, Max Wind SpeedMPH, Mean Wind SpeedMPH, Max Gust SpeedMPH,PrecipitationIn, CloudCover, Events, WindDirDegrees
2012-10-1,61,57,52,57,52,51,100,86,72,29.90,29.69,29.57,10,8,2,16,8,22,0.39,7,Rain,254
2012-10-2,66,55,43,57,50,44,100,84,67,30.04,29.98,29.89,10,4,0,9,1,12,T,3,Fog,203
2012-10-3,70,63,55,61,58,54,100,87,73,30.12,30.07,30.03,10,8,4,14,5,16,0.00,7,,50
2012-10-4,71,64,57,64,60,53,93,80,66,30.12,30.08,29.97,10,7,2,14,5,18,0.00,6,,214
2012-10-5,71,63,54,61,55,50,93,80,67,29.98,29.90,29.84,10,10,8,24,11,32,0.03,4,,219
2012-10-6,60,53,46,51,46,37,93,70,46,29.94,29.80,29.76,10,7,2,25,9,31,0.65,7,Rain,243
2012-10-7,53,46,38,41,36,31,92,69,46,30.10,30.04,29.95,10,10,10,14,4,17,T,5,Rain,255
2012-10-8,57,46,34,43,38,31,100,69,38,30.28,30.19,30.09,10,10,4,14,3,17,0.00,4,,208
2012-10-9,62,46,30,42,36,28,100,70,39,30.28,30.18,30.02,10,10,9,12,4,17,0.00,3,,179
2012-10-10,61,52,42,48,44,37,93,72,51,30.00,29.83,29.68,10,10,4,24,10,36,0.07,5,Rain,205
2012-10-11,50,47,43,42,37,30,82,66,50,30.02,29.93,29.84,10,10,7,17,11,33,0.05,6,Rain,233
2012-10-12,47,37,26,44,29,21,93,67,41,30.44,30.20,29.91,10,10,6,21,9,28,0.01,4,Rain,282
2012-10-13,52,38,23,39,28,23,100,70,39,30.45,30.35,30.16,10,10,6,16,5,21,0.30,4,Rain,211
2012-10-14,52,46,40,50,45,39,100,97,93,30.06,29.89,29.68,10,4,1,10,5,14,0.48,8,Rain,70
2012-10-15,68,58,47,56,49,36,78,67,56,29.66,29.57,29.48,10,10,4,30,15,41,T,6,Rain,213
2012-10-16,48,38,27,38,34,28,100,77,54,29.92,29.80,29.66,10,10,5,20,8,25,0.01,6,Rain,266
2012-10-17,61,44,27,43,33,27,100,73,46,29.98,29.93,29.90,10,7,0,9,1,12,0.02,3,Fog-Rain,69
2012-10-18,73,57,41,47,43,38,96,65,33,29.94,29.90,29.83,10,10,9,17,6,23,0.04,2,Rain,121
2012-10-19,57,54,50,55,53,44,100,89,77,29.91,29.80,29.65,10,6,1,16,6,21,0.92,7,Rain,41
2012-10-20,62,53,43,55,51,40,100,79,57,29.71,29.64,29.59,10,8,0,18,7,28,0.25,6,Fog-Rain-Thunderstorm,162
2012-10-21,56,51,46,46,44,41,93,76,59,29.97,29.81,29.70,10,10,10,24,12,32,T,7,Rain,243
2012-10-22,60,49,38,45,43,40,92,75,57,30.09,30.03,29.96,10,10,10,18,8,24,0.00,3,,265
2012-10-23,57,46,34,42,36,32,100,80,59,30.19,30.13,30.09,10,4,0,8,1,12,0.00,3,Fog,78
2012-10-24,53,43,33,36,33,30,100,75,50,30.24,30.20,30.16,10,10,6,18,9,23,0.00,5,,57
2012-10-25,59,53,46,46,41,34,93,75,56,30.21,30.15,30.06,10,10,10,14,7,16,0.00,5,,64
2012-10-26,74,57,39,56,46,37,100,77,53,30.13,30.09,30.04,10,8,1,14,3,16,0.00,1,,233
2012-10-27,60,54,47,54,50,44,93,78,62,30.11,30.04,29.99,10,7,2,10,4,13,0.00,8,,339
2012-10-28,50,48,45,46,45,44,100,90,80,30.09,30.03,29.94,10,8,2,9,5,13,0.00,7,,308
2012-10-29,62,56,49,50,48,45,93,78,62,29.92,29.70,29.36,10,10,10,38,20,49,T,8,,44
2012-10-30,70,63,56,56,52,45,86,64,42,29.48,29.41,29.34,10,10,4,39,17,52,0.02,5,Rain,66
2012-10-31,58,50,41,54,46,40,100,92,83,29.49,29.45,29.39,10,9,4,9,5,18,0.13,7,Rain,210